SITKA HARBOR AK US NWS current weather conditions

sailwx.info

Wind from 170 at 6 knots gusting 11

Air temperature 14.4° C
Dewpoint 11.8° C

Last reported at 2020-Aug-05 02:53 UTC.
Time now 2020-Aug-05 04:12 UTC

Location: N 57°03' W 135°21'.
View on Google Maps.

See reports from other nearby stations

  
Tides and Currents Weather Stations Pressure Air Temp Water Temp Dewpoint Dewpoint Depression Visibility Wind Speed Wind Dir Waves Ship Positions
date/time (UTC)wind fromknots sea level pressurealtimeterstation pressurevisibilityair tempwater tempwave heightnotes
2020-Aug-05 02:53 170 6 gusting 11 14.4
2020-Aug-05 02:43 170 6 gusting 12 14.2
2020-Aug-05 02:33 180 8 gusting 15 13.7
2020-Aug-05 02:23 190 12 gusting 18 13.5
2020-Aug-05 02:12 190 13 gusting 22 13.5
2020-Aug-05 02:02 200 8 gusting 14 13.9
2020-Aug-05 01:52 190 6 gusting 12 13.9
2020-Aug-05 01:44 180 11 gusting 18 13.8
2020-Aug-05 01:32 190 12 gusting 21 13.8
2020-Aug-05 01:22 200 11 gusting 20 13.9
2020-Aug-05 01:12 250 9 gusting 19 14.1
2020-Aug-05 01:02 280 6 gusting 9 14.0
2020-Aug-05 00:53 290 6 gusting 8 14.3
2020-Aug-05 00:42 290 7 gusting 9 14.4
2020-Aug-05 00:33 280 6 gusting 7 14.6
2020-Aug-05 00:23 290 6 gusting 8 14.3
2020-Aug-05 00:12 280 6 gusting 9 14.2
2020-Aug-04 23:53 280 7 gusting 12 14.1
2020-Aug-04 23:42 280 6 gusting 9 14.1
2020-Aug-04 23:32 280 6 gusting 9 14.1
2020-Aug-04 23:22 280 6 gusting 9 14.0
2020-Aug-04 23:13 290 6 gusting 12 14.0
2020-Aug-04 23:03 290 6 gusting 9 14.0
2020-Aug-04 22:52 280 7 gusting 11 14.0
2020-Aug-04 22:43 280 7 gusting 9 14.2
2020-Aug-04 22:33 280 6 gusting 6 14.2
2020-Aug-04 22:23 280 5 gusting 6 14.0
2020-Aug-04 22:12 280 5 gusting 6 13.9
2020-Aug-04 22:03 270 6 gusting 6 14.0
2020-Aug-04 21:52 280 5 gusting 6 14.0
2020-Aug-04 21:43 290 5 gusting 6 14.0
2020-Aug-04 21:33 290 5 gusting 7 13.8
2020-Aug-04 21:23 290 6 gusting 8 13.6
2020-Aug-04 21:12 280 6 gusting 8 13.7
2020-Aug-04 21:03 270 8 gusting 13 13.6
2020-Aug-04 20:53 280 6 gusting 12 13.9
2020-Aug-04 20:43 280 6 gusting 8 14.5
2020-Aug-04 20:33 270 5 gusting 7 15.4
2020-Aug-04 20:23 260 2 gusting 5 14.9
2020-Aug-04 20:13 250 1 gusting 4 14.2
2020-Aug-04 20:03 200 6 gusting 6 14.0
2020-Aug-04 19:53 190 2 gusting 5 14.0
2020-Aug-04 19:43 220 1 gusting 4 14.0
2020-Aug-04 19:32 200 1 gusting 4 13.7
2020-Aug-04 19:23 270 0 gusting 2 13.4
2020-Aug-04 19:13 350 1 gusting 2 13.3
2020-Aug-04 19:03 260 1 gusting 2 13.3
2020-Aug-04 18:52 200 4 gusting 6 13.2
2020-Aug-04 18:43 170 4 gusting 6 13.0
2020-Aug-04 18:32 180 5 gusting 7 13.2
2020-Aug-04 18:23 200 1 gusting 4 13.2
2020-Aug-04 18:13 180 2 gusting 6 12.9
2020-Aug-04 18:02 170 5 gusting 7 12.9
2020-Aug-04 17:52 180 6 gusting 7 12.8
2020-Aug-04 17:43 180 5 gusting 6 12.9
2020-Aug-04 17:32 210 1 gusting 2 12.8
2020-Aug-04 17:22 200 0 gusting 2 12.8
2020-Aug-04 17:12 180 1 gusting 4 12.8
2020-Aug-04 17:03 190 1 gusting 4 12.7
2020-Aug-04 16:53 190 1 gusting 5 12.6
2020-Aug-04 16:43 180 6 gusting 8 12.7
2020-Aug-04 16:33 190 4 gusting 7 12.8
2020-Aug-04 16:23 240 0 gusting 2 12.7
2020-Aug-04 16:13 12.7
2020-Aug-04 16:03 310 0 gusting 1 12.9
2020-Aug-04 15:53 200 2 gusting 6 13.2
2020-Aug-04 15:43 200 5 gusting 8 13.3
2020-Aug-04 15:33 200 6 gusting 9 13.4
2020-Aug-04 15:22 200 4 gusting 7 13.6
2020-Aug-04 15:12 240 1 gusting 5 13.7
2020-Aug-04 15:03 240 0 gusting 4 13.6
2020-Aug-04 14:53 190 4 gusting 6 13.6
2020-Aug-04 14:42 230 0 gusting 2 13.5
2020-Aug-04 14:33 270 0 gusting 5 13.5
2020-Aug-04 14:23 200 1 gusting 6 13.3
2020-Aug-04 14:13 230 1 gusting 4 13.3
2020-Aug-04 14:02 180 4 gusting 6 13.3
2020-Aug-04 13:52 180 5 gusting 7 13.2
2020-Aug-04 13:43 190 6 gusting 9 13.2
2020-Aug-04 13:33 200 6 gusting 11 13.2
2020-Aug-04 13:22 200 7 gusting 12 13.4
2020-Aug-04 13:13 180 8 gusting 12 13.8
2020-Aug-04 13:03 170 9 gusting 13 13.9
2020-Aug-04 12:53 150 5 gusting 11 13.7
2020-Aug-04 12:42 150 4 gusting 7 13.4
2020-Aug-04 12:33 130 4 gusting 11 13.3
2020-Aug-04 12:22 140 4 gusting 9 13.1
2020-Aug-04 12:13 150 2 gusting 9 12.9
2020-Aug-04 12:03 150 2 gusting 7 12.9
2020-Aug-04 11:53 140 2 gusting 6 12.7
2020-Aug-04 11:43 160 1 gusting 7 12.5
2020-Aug-04 11:33 130 1 gusting 6 12.5
2020-Aug-04 11:23 160 1 gusting 6 12.6
2020-Aug-04 11:13 170 1 gusting 6 12.5
2020-Aug-04 11:03 250 1 gusting 2 12.4
2020-Aug-04 10:52 330 0 gusting 2 12.2
2020-Aug-04 10:42 330 1 gusting 2 12.3
2020-Aug-04 10:32 290 0 gusting 1 12.3
2020-Aug-04 10:23 310 1 gusting 2 12.3
2020-Aug-04 10:13 290 1 gusting 4 12.5
2020-Aug-04 10:03 290 1 gusting 4 12.4
2020-Aug-04 09:53 280 1 gusting 2 12.5
2020-Aug-04 09:42 270 1 gusting 2 12.5
2020-Aug-04 09:33 290 1 gusting 2 12.2
2020-Aug-04 09:23 300 1 gusting 2 12.3
2020-Aug-04 09:13 290 2 gusting 4 12.3
2020-Aug-04 09:03 290 1 gusting 4 12.3
2020-Aug-04 08:53 310 1 gusting 2 12.3
2020-Aug-04 08:43 300 2 gusting 4 12.4
2020-Aug-04 08:33 270 2 gusting 5 12.4
2020-Aug-04 08:22 260 2 gusting 5 12.1
2020-Aug-04 08:13 270 1 gusting 4 11.8
2020-Aug-04 08:02 280 1 gusting 5 11.9
2020-Aug-04 07:53 020 1 gusting 2 11.8
2020-Aug-04 07:43 340 1 gusting 2 11.8
2020-Aug-04 07:33 310 0 gusting 1 11.8
2020-Aug-04 07:23 020 1 gusting 2 11.8
2020-Aug-04 07:13 020 1 gusting 2 11.9
2020-Aug-04 07:03 360 0 gusting 2 12.0
2020-Aug-04 06:52 030 0 gusting 4 12.3
2020-Aug-04 06:42 280 0 gusting 2 12.6
2020-Aug-04 06:32 250 0 gusting 2 12.7
2020-Aug-04 06:23 180 2 gusting 6 12.9
2020-Aug-04 06:12 200 2 gusting 6 13.2
2020-Aug-04 06:02 200 1 gusting 6 13.4
2020-Aug-04 05:53 200 2 gusting 6 13.6
2020-Aug-04 05:43 200 1 gusting 4 13.9
2020-Aug-04 05:33 190 1 gusting 4 14.0
2020-Aug-04 05:23 280 0 gusting 1 14.0
2020-Aug-04 05:13 250 0 gusting 2 14.1
2020-Aug-04 05:03 180 4 gusting 6 14.3
2020-Aug-04 04:53 200 4 gusting 6 14.5
2020-Aug-04 04:43 260 1 gusting 2 14.4
2020-Aug-04 04:33 210 0 gusting 6 14.3
2020-Aug-04 04:23 180 5 gusting 6 14.3
2020-Aug-04 04:13 190 4 gusting 6 14.6
2020-Aug-04 04:02 200 2 gusting 5 14.7
2020-Aug-04 03:52 230 1 gusting 5 14.8
2020-Aug-04 03:43 260 0 gusting 2 14.8
2020-Aug-04 03:33 190 1 gusting 4 14.8
2020-Aug-04 03:22 180 2 gusting 6 14.7
2020-Aug-04 03:13 180 6 gusting 7 14.5
2020-Aug-04 03:03 180 7 gusting 12 14.5
2020-Aug-04 02:53 200 7 gusting 13 14.8
2020-Aug-04 02:43 210 7 gusting 12 14.8
2020-Aug-04 02:32 200 8 gusting 13 14.7
2020-Aug-04 02:22 200 8 gusting 13 14.8
2020-Aug-04 02:13 190 7 gusting 12 14.8
2020-Aug-04 02:03 210 6 gusting 11 15.4
2020-Aug-04 01:52 220 6 gusting 8 15.4
2020-Aug-04 01:43 230 6 gusting 8 15.1
2020-Aug-04 01:33 220 6 gusting 11 14.7
2020-Aug-04 01:23 210 7 gusting 13 14.8
2020-Aug-04 01:13 220 6 gusting 11 15.0
2020-Aug-04 01:03 210 7 gusting 15 14.9
2020-Aug-04 00:53 210 6 gusting 13 14.9
2020-Aug-04 00:43 210 7 gusting 13 14.9
2020-Aug-04 00:33 200 8 gusting 13 14.9
2020-Aug-04 00:23 220 7 gusting 14 15.1
2020-Aug-04 00:13 230 8 gusting 14 15.2
2020-Aug-03 23:52 220 9 gusting 19 13.8
2020-Aug-03 23:43 220 12 gusting 17 13.5
2020-Aug-03 23:33 220 11 gusting 19 13.5
2020-Aug-03 23:23 230 11 gusting 15 13.7
2020-Aug-03 23:12 210 8 gusting 13 13.7
2020-Aug-03 23:03 200 9 gusting 15 13.8
2020-Aug-03 22:53 220 9 gusting 15 14.3
2020-Aug-03 22:42 210 7 gusting 17 14.5
2020-Aug-03 22:32 220 11 gusting 15 14.8
2020-Aug-03 22:23 220 9 gusting 13 14.8
2020-Aug-03 22:12 220 8 gusting 13 14.8
2020-Aug-03 22:03 220 9 gusting 14 14.7
2020-Aug-03 21:53 230 8 gusting 13 14.3
2020-Aug-03 21:42 220 9 gusting 15 14.2
2020-Aug-03 21:32 220 13 gusting 17 14.1
2020-Aug-03 21:22 220 12 gusting 20 14.2
2020-Aug-03 21:13 220 11 gusting 18 14.1
2020-Aug-03 21:03 220 13 gusting 19 14.2
2020-Aug-03 20:53 210 13 gusting 19 14.4
2020-Aug-03 20:43 220 9 gusting 18 14.7
2020-Aug-03 20:33 220 9 gusting 15 14.8
2020-Aug-03 20:23 240 6 gusting 13 15.0
2020-Aug-03 20:13 260 5 gusting 7 14.9
2020-Aug-03 20:03 270 5 gusting 6 15.2
2020-Aug-03 19:52 290 4 gusting 5 15.0
2020-Aug-03 19:42 280 2 gusting 4 14.9
2020-Aug-03 19:32 270 2 gusting 4 14.7
2020-Aug-03 19:23 220 7 gusting 11 15.0
2020-Aug-03 19:13 220 8 gusting 9 15.7
2020-Aug-03 19:03 220 6 gusting 8 16.3
2020-Aug-03 18:53 230 5 gusting 6 16.5
2020-Aug-03 18:42 240 2 gusting 4 16.0
2020-Aug-03 18:33 230 5 gusting 6 15.6
2020-Aug-03 18:23 220 6 gusting 9 15.7
2020-Aug-03 18:13 190 5 gusting 6 16.0
2020-Aug-03 18:03 200 2 gusting 5 16.3
2020-Aug-03 17:53 210 2 gusting 4 16.2
2020-Aug-03 17:42 220 4 gusting 5 15.7
2020-Aug-03 17:32 200 2 gusting 4 15.3
2020-Aug-03 17:23 190 5 gusting 6 15.3
2020-Aug-03 17:13 210 4 gusting 5 15.6
2020-Aug-03 17:03 220 1 gusting 4 15.2
2020-Aug-03 16:53 200 2 gusting 4 15.0
2020-Aug-03 16:43 220 1 gusting 4 14.7
2020-Aug-03 16:32 210 2 gusting 4 14.4
2020-Aug-03 16:23 200 2 gusting 4 14.4
2020-Aug-03 16:12 210 2 gusting 4 14.6
2020-Aug-03 16:03 260 1 gusting 2 14.3
2020-Aug-03 15:53 290 0 gusting 1 14.0
2020-Aug-03 15:42 220 1 gusting 4 14.0
2020-Aug-03 15:33 210 2 gusting 4 13.9
2020-Aug-03 15:22 200 2 gusting 4 13.9
2020-Aug-03 15:13 220 2 gusting 4 14.0
2020-Aug-03 15:03 250 2 gusting 4 13.9
2020-Aug-03 14:52 270 1 gusting 1 13.6
2020-Aug-03 14:42 270 1 gusting 2 13.3
2020-Aug-03 14:32 290 0 gusting 1 12.9
2020-Aug-03 14:22 12.7
2020-Aug-03 14:13 040 0 gusting 1 12.6
2020-Aug-03 14:03 340 0 gusting 2 12.9
2020-Aug-03 13:53 260 0 gusting 4 13.2
2020-Aug-03 13:43 230 2 gusting 5 13.2
2020-Aug-03 13:32 260 1 gusting 2 12.9
2020-Aug-03 13:23 12.8
2020-Aug-03 13:13 320 0 gusting 1 13.1
2020-Aug-03 13:03 280 1 gusting 2 13.4
2020-Aug-03 12:53 260 2 gusting 2 13.3
2020-Aug-03 12:43 280 1 gusting 2 12.9
2020-Aug-03 12:33 270 0 gusting 1 12.9
2020-Aug-03 12:22 290 0 gusting 1 13.1
2020-Aug-03 12:13 270 1 gusting 2 13.4
2020-Aug-03 12:03 260 2 gusting 4 13.2
2020-Aug-03 11:53 290 0 gusting 2 12.8
2020-Aug-03 11:43 010 0 gusting 1 12.7
2020-Aug-03 11:32 320 0 gusting 1 12.8
2020-Aug-03 11:22 290 0 gusting 1 12.7
2020-Aug-03 11:12 320 1 gusting 4 12.8
2020-Aug-03 11:02 270 0 gusting 2 12.8
2020-Aug-03 10:53 300 0 gusting 2 12.5
2020-Aug-03 10:43 340 0 gusting 1 12.6
2020-Aug-03 10:33 010 0 gusting 1 12.7
2020-Aug-03 10:23 340 0 gusting 1 12.8
2020-Aug-03 10:13 310 1 gusting 1 13.1
2020-Aug-03 10:03 230 1 gusting 4 13.3
2020-Aug-03 09:53 240 0 gusting 2 13.2
2020-Aug-03 09:43 190 0 gusting 2 13.1
2020-Aug-03 09:33 200 0 gusting 1 13.0
2020-Aug-03 09:23 080 0 gusting 2 13.0
2020-Aug-03 09:12 020 0 gusting 1 13.2
2020-Aug-03 09:03 300 0 gusting 1 13.3
2020-Aug-03 08:53 300 0 gusting 1 13.3
2020-Aug-03 08:43 320 1 gusting 2 13.4
2020-Aug-03 08:33 270 1 gusting 2 13.8
2020-Aug-03 08:23 220 2 gusting 4 13.7
2020-Aug-03 08:13 250 2 gusting 4 13.6
2020-Aug-03 08:03 260 1 gusting 2 13.5
2020-Aug-03 07:53 270 1 gusting 2 13.4
2020-Aug-03 07:42 220 1 gusting 4 13.3
2020-Aug-03 07:33 340 1 gusting 2 13.0
2020-Aug-03 07:23 040 1 gusting 2 13.0
2020-Aug-03 07:13 050 0 gusting 2 13.1
2020-Aug-03 07:03 020 0 gusting 2 13.1
2020-Aug-03 06:53 340 0 gusting 1 13.2
2020-Aug-03 06:43 010 0 gusting 1 13.2
2020-Aug-03 06:33 13.2
2020-Aug-03 06:22 13.3
2020-Aug-03 06:13 13.3
2020-Aug-03 06:03 020 0 gusting 1 13.3
2020-Aug-03 05:53 010 0 gusting 1 13.6
2020-Aug-03 05:43 320 0 gusting 2 13.9
2020-Aug-03 05:32 290 1 gusting 2 14.0
2020-Aug-03 05:23 280 1 gusting 2 14.1
2020-Aug-03 05:12 290 1 gusting 2 14.2
2020-Aug-03 05:03 270 1 gusting 2 14.1
2020-Aug-03 04:52 280 0 gusting 1 14.1
2020-Aug-03 04:43 250 1 gusting 2 14.2
2020-Aug-03 04:33 280 0 gusting 2 14.0
2020-Aug-03 04:23 14.0
2020-Aug-03 04:12 14.0
2020-Aug-03 04:03 290 2 gusting 5 14.5